Time;durP1;ratioP1;P1;durP2;ratioP2;P2;SDS_P1;SDS_P2;PMS_P1;PMS_P2;Temp;Humidity;BMP_temperature;BMP_pressure;BME280_temperature;BME280_humidity;BME280_pressure;Samples;Min_cycle;Max_cycle;Signal;HPM_P1;HPM_P2
2022/05/17 00:06:30;;;;;;;10.38;4.15;;;;;;;17.44;68.11;100543.53;18480371;32;20127;-66
2022/05/17 00:16:34;;;;;;;10.23;4.03;;;;;;;16.80;70.07;100525.91;18478859;32;20154;-66
2022/05/17 00:26:38;;;;;;;8.10;3.83;;;;;;;16.90;69.48;100516.84;18479734;32;20133;-66
2022/05/17 00:36:41;;;;;;;7.03;3.67;;;;;;;16.86;69.37;100512.56;18477268;32;20111;-66
2022/05/17 00:46:52;;;;;;;9.55;4.07;;;;;;;16.82;70.23;100514.41;18477419;32;20127;-67
2022/05/17 00:56:59;;;;;;;9.93;4.70;;;;;;;17.19;68.96;100502.03;18476862;32;20135;-66
2022/05/17 01:07:08;;;;;;;9.50;4.50;;;;;;;16.92;70.76;100509.75;18480289;32;20103;-66
2022/05/17 01:17:11;;;;;;;9.80;4.55;;;;;;;16.91;70.74;100505.41;18473983;32;20389;-66
2022/05/17 01:27:21;;;;;;;8.05;4.10;;;;;;;17.27;69.85;100496.53;18477206;32;20115;-66
2022/05/17 01:37:25;;;;;;;11.43;4.60;;;;;;;17.43;69.79;100489.03;18478545;32;20088;-66
2022/05/17 01:47:30;;;;;;;8.88;4.10;;;;;;;18.12;67.23;100494.00;18479512;32;20210;-66
2022/05/17 01:57:33;;;;;;;8.93;4.35;;;;;;;17.65;69.16;100478.69;18484340;32;20380;-66
2022/05/17 02:07:38;;;;;;;10.35;4.28;;;;;;;17.86;68.91;100484.22;18481120;32;20112;-67
2022/05/17 02:17:42;;;;;;;10.13;4.37;;;;;;;17.81;69.25;100479.09;18479323;32;20143;-66
2022/05/17 02:27:46;;;;;;;9.13;4.68;;;;;;;17.27;70.98;100481.59;18500464;32;20089;-65
2022/05/17 02:37:49;;;;;;;9.73;4.75;;;;;;;17.16;71.22;100471.34;18500030;32;20093;-65
2022/05/17 02:47:54;;;;;;;10.30;4.97;;;;;;;17.10;71.90;100470.66;18499814;32;20096;-66
2022/05/17 02:57:58;;;;;;;9.45;4.70;;;;;;;17.72;69.62;100468.81;18499754;32;20116;-65
2022/05/17 03:08:02;;;;;;;9.65;4.32;;;;;;;17.77;70.01;100473.94;18499519;32;20084;-66
2022/05/17 03:18:06;;;;;;;10.02;4.82;;;;;;;17.58;71.25;100477.16;18499359;32;20342;-66
2022/05/17 03:28:11;;;;;;;11.30;4.72;;;;;;;18.21;68.94;100484.91;18500005;32;20112;-66
2022/05/17 03:38:14;;;;;;;9.23;4.10;;;;;;;17.83;70.71;100503.69;18498595;32;20101;-66
2022/05/17 03:48:19;;;;;;;8.73;4.40;;;;;;;18.37;68.51;100501.13;18498312;32;20096;-66
2022/05/17 03:58:22;;;;;;;10.82;4.55;;;;;;;18.24;69.16;100495.38;18497300;32;20096;-66
2022/05/17 04:08:26;;;;;;;8.57;4.30;;;;;;;18.78;66.72;100489.16;18497524;32;20088;-66
2022/05/17 04:18:30;;;;;;;11.77;3.70;;;;;;;18.23;68.85;100480.44;18497277;32;20476;-66
2022/05/17 04:28:34;;;;;;;8.15;3.58;;;;;;;18.52;67.18;100480.38;18497001;32;20114;-66
2022/05/17 04:38:38;;;;;;;5.65;2.95;;;;;;;18.88;66.26;100484.44;18496867;32;20097;-65
2022/05/17 04:48:42;;;;;;;7.82;3.47;;;;;;;19.47;62.20;100477.91;18496449;32;20097;-66
2022/05/17 04:58:46;;;;;;;7.47;3.05;;;;;;;19.36;62.58;100482.75;18497142;32;20126;-66
2022/05/17 05:08:50;;;;;;;7.47;3.28;;;;;;;19.53;62.59;100490.88;18488435;32;20127;-66
2022/05/17 05:18:54;;;;;;;7.97;3.20;;;;;;;19.71;62.09;100482.31;18490647;32;20108;-66
2022/05/17 05:28:58;;;;;;;7.47;2.90;;;;;;;19.81;59.88;100486.31;18492298;32;20112;-66
2022/05/17 05:39:02;;;;;;;6.22;2.58;;;;;;;19.98;56.89;100480.34;18491925;32;20093;-66
2022/05/17 05:49:06;;;;;;;5.82;3.03;;;;;;;20.55;56.68;100492.19;18489613;32;20097;-66
2022/05/17 05:59:10;;;;;;;6.95;2.70;;;;;;;21.35;55.37;100485.19;18487996;32;20826;-66
2022/05/17 06:09:15;;;;;;;8.73;2.80;;;;;;;21.03;54.63;100493.66;18488211;32;20190;-66
2022/05/17 06:19:19;;;;;;;4.90;2.50;;;;;;;21.54;54.47;100494.94;18489354;32;20101;-66
2022/05/17 06:29:23;;;;;;;5.82;2.08;;;;;;;22.28;49.12;100493.22;18498446;32;20436;-67
2022/05/17 06:39:27;;;;;;;7.82;2.33;;;;;;;22.48;45.21;100500.19;18495576;32;20179;-67
2022/05/17 06:49:31;;;;;;;5.35;2.37;;;;;;;22.49;47.44;100509.00;18494236;32;20124;-66
2022/05/17 06:59:36;;;;;;;7.03;2.90;;;;;;;23.25;47.08;100491.81;18495742;32;20093;-67
2022/05/17 07:09:41;;;;;;;9.02;3.20;;;;;;;22.78;49.92;100499.59;18490419;32;20106;-66
2022/05/17 07:20:05;;;;;;;7.45;3.28;;;;;;;22.75;51.79;100499.72;18485548;32;20088;-67
2022/05/17 07:30:11;;;;;;;7.22;3.35;;;;;;;22.64;52.28;100518.03;18494689;32;20100;-66
2022/05/17 07:40:15;;;;;;;7.62;2.97;;;;;;;23.44;50.23;100517.47;18492992;32;20097;-66
2022/05/17 07:50:20;;;;;;;7.25;2.75;;;;;;;23.60;49.27;100526.31;18497744;32;20140;-67
2022/05/17 08:00:23;;;;;;;4.97;2.35;;;;;;;23.64;47.00;100517.25;18497274;32;20089;-68
2022/05/17 08:10:28;;;;;;;6.22;2.28;;;;;;;23.64;44.79;100529.69;18494259;32;20093;-67
2022/05/17 08:20:31;;;;;;;3.60;1.77;;;;;;;23.40;44.16;100538.94;18495646;32;20113;-66
2022/05/17 08:30:36;;;;;;;3.95;1.98;;;;;;;23.88;42.24;100526.62;18494718;32;20100;-67
2022/05/17 08:40:49;;;;;;;5.25;2.40;;;;;;;24.03;42.53;100527.56;18479259;32;20097;-66
2022/05/17 08:50:54;;;;;;;4.62;2.50;;;;;;;24.58;42.14;100539.50;18493895;32;20445;-66
2022/05/17 09:01:01;;;;;;;4.25;1.85;;;;;;;24.02;43.76;100541.84;18494109;32;20136;-68
2022/05/17 09:11:12;;;;;;;4.12;2.10;;;;;;;23.77;43.70;100552.06;18485036;32;20101;-67
2022/05/17 09:21:26;;;;;;;4.82;2.33;;;;;;;23.66;44.59;100554.44;18493483;32;20127;-66
2022/05/17 09:31:34;;;;;;;6.37;3.00;;;;;;;23.07;46.84;100569.06;18494401;32;20088;-67
2022/05/17 09:41:39;;;;;;;8.05;3.83;;;;;;;22.18;56.07;100570.75;18472961;32;20101;-67
2022/05/17 10:02:49;;;;;;;9.85;4.00;;;;;;;19.99;71.16;100558.91;18497012;32;20116;-67
2022/05/17 10:12:57;;;;;;;9.37;4.47;;;;;;;20.26;71.32;100574.66;18499256;32;20096;-67
2022/05/17 10:23:04;;;;;;;7.28;3.80;;;;;;;20.96;70.03;100570.94;18499595;32;20218;-67
2022/05/17 10:33:13;;;;;;;10.65;3.70;;;;;;;21.11;62.83;100564.97;18497663;32;20097;-66
2022/05/17 10:43:23;;;;;;;7.72;3.47;;;;;;;21.49;64.45;100550.94;18497930;32;20127;-66
2022/05/17 10:53:39;;;;;;;6.07;2.83;;;;;;;21.68;61.20;100537.69;18497248;32;20453;-66
2022/05/17 11:04:10;;;;;;;6.97;3.15;;;;;;;21.82;61.60;100541.50;18494714;32;20111;-66
2022/05/17 11:14:20;;;;;;;5.37;3.03;;;;;;;22.01;56.47;100536.16;18496519;32;20089;-66
2022/05/17 11:24:33;;;;;;;5.82;2.95;;;;;;;22.10;58.46;100535.72;18494239;32;20097;-67
2022/05/17 11:34:44;;;;;;;5.72;2.85;;;;;;;22.00;52.87;100524.66;18496937;32;20076;-66
2022/05/17 11:44:49;;;;;;;5.27;2.60;;;;;;;22.81;54.86;100517.16;18496382;32;20111;-68
2022/05/17 11:54:55;;;;;;;7.12;2.92;;;;;;;23.92;47.84;100497.03;18491808;32;20179;-66
2022/05/17 12:04:59;;;;;;;5.10;2.28;;;;;;;23.89;50.41;100485.69;18492892;32;20091;-67
2022/05/17 12:15:17;;;;;;;6.25;2.42;;;;;;;24.08;48.02;100482.84;18482852;32;20508;-67
2022/05/17 12:25:25;;;;;;;7.10;2.67;;;;;;;23.93;47.28;100481.88;18481910;32;20119;-66
2022/05/17 12:35:30;;;;;;;4.57;2.10;;;;;;;23.87;46.71;100469.75;18491376;32;20097;-67
2022/05/17 12:45:37;;;;;;;3.58;1.67;;;;;;;23.82;46.28;100464.69;18490566;32;20116;-67
2022/05/17 12:55:56;;;;;;;5.90;2.20;;;;;;;23.32;49.14;100466.56;18474189;32;520917;-67
2022/05/17 13:06:03;;;;;;;5.22;2.12;;;;;;;23.04;51.98;100456.56;18490729;32;20485;-67
2022/05/17 13:16:11;;;;;;;5.70;2.60;;;;;;;23.37;47.98;100450.34;18494680;32;20115;-67
2022/05/17 13:26:22;;;;;;;6.55;2.80;;;;;;;22.47;52.08;100447.06;18494768;32;20088;-67
2022/05/17 13:36:33;;;;;;;5.85;2.45;;;;;;;23.19;52.65;100441.53;18486418;32;20101;-66
2022/05/17 13:46:39;;;;;;;6.03;2.97;;;;;;;22.73;56.10;100438.62;18474698;32;20115;-66
2022/05/17 13:56:52;;;;;;;7.93;3.20;;;;;;;23.01;57.23;100422.97;18483443;32;20452;-66
2022/05/17 14:07:02;;;;;;;6.10;2.65;;;;;;;23.96;52.01;100415.91;18491564;32;20103;-66
2022/05/17 14:17:28;;;;;;;5.18;2.60;;;;;;;23.25;55.22;100407.44;18470407;32;20096;-66
2022/05/17 14:27:31;;;;;;;6.97;2.95;;;;;;;23.05;56.35;100405.03;18488524;32;20439;-68
2022/05/17 14:37:36;;;;;;;6.87;2.90;;;;;;;22.69;57.44;100409.59;18486891;32;20096;-67
2022/05/17 14:47:41;;;;;;;6.55;3.00;;;;;;;22.79;55.67;100394.84;18496330;32;20119;-66
2022/05/17 14:57:46;;;;;;;6.70;3.62;;;;;;;22.72;55.61;100383.69;18497651;32;20120;-67
2022/05/17 15:07:52;;;;;;;6.90;3.20;;;;;;;23.05;56.02;100394.38;18498965;32;20096;-67
2022/05/17 15:18:00;;;;;;;5.53;2.90;;;;;;;23.17;55.14;100395.50;18494880;32;20653;-67
2022/05/17 15:28:04;;;;;;;5.82;2.70;;;;;;;22.77;55.48;100386.09;18492011;32;20115;-67
2022/05/17 15:38:15;;;;;;;6.57;3.00;;;;;;;22.90;55.71;100393.41;18489680;32;20101;-67
2022/05/17 15:58:42;;;;;;;7.37;3.33;;;;;;;22.25;56.28;100390.53;18486488;32;20452;-67
2022/05/17 16:08:47;;;;;;;7.22;2.95;;;;;;;22.24;56.17;100387.94;18491189;32;20084;-67
2022/05/17 16:18:54;;;;;;;5.87;2.95;;;;;;;22.47;56.69;100386.72;18495225;32;20447;-67
2022/05/17 16:28:57;;;;;;;5.50;3.17;;;;;;;22.67;56.24;100396.37;18492962;32;20111;-67
2022/05/17 16:39:02;;;;;;;7.03;3.33;;;;;;;22.64;56.18;100390.34;18494805;32;20425;-67
2022/05/17 16:49:08;;;;;;;8.32;3.40;;;;;;;22.64;56.93;100388.56;18489212;32;20089;-67
2022/05/17 16:59:13;;;;;;;6.90;3.30;;;;;;;22.70;58.24;100368.75;18471709;32;20108;-67
2022/05/17 17:09:22;;;;;;;7.57;3.47;;;;;;;22.31;59.92;100381.38;18491494;32;20097;-67
2022/05/17 17:19:26;;;;;;;5.43;3.03;;;;;;;22.27;60.33;100369.19;18491656;32;20076;-67
2022/05/17 17:29:30;;;;;;;7.70;3.08;;;;;;;22.26;60.67;100365.66;18490266;32;20101;-67
2022/05/17 17:39:34;;;;;;;7.35;3.22;;;;;;;22.53;58.41;100375.81;18493983;32;20092;-67
2022/05/17 17:49:37;;;;;;;4.82;2.78;;;;;;;22.31;58.85;100395.53;18490345;32;20105;-67
2022/05/17 17:59:42;;;;;;;6.85;3.40;;;;;;;22.35;59.66;100406.00;18491599;32;20108;-66
2022/05/17 18:09:45;;;;;;;7.20;3.70;;;;;;;22.42;60.42;100418.88;18488988;32;20846;-66
2022/05/17 18:19:50;;;;;;;5.22;1.80;;;;;;;21.72;61.66;100425.03;18494832;32;20097;-66
2022/05/17 18:29:53;;;;;;;4.53;2.17;;;;;;;20.55;63.89;100477.13;18484715;32;20404;-66
2022/05/17 18:39:59;;;;;;;4.05;1.85;;;;;;;19.78;67.01;100511.13;18499664;32;20097;-66
2022/05/17 18:50:06;;;;;;;5.45;2.37;;;;;;;18.89;72.39;100531.13;18484191;32;20121;-66
2022/05/17 19:00:14;;;;;;;5.97;2.60;;;;;;;18.57;72.26;100539.22;18494907;32;20101;-66
2022/05/17 19:20:40;;;;;;;5.73;2.87;;;;;;;18.06;73.73;100585.78;18497539;32;20376;-66
2022/05/17 19:30:44;;;;;;;8.75;2.87;;;;;;;18.12;71.98;100615.53;18473188;32;20111;-66
2022/05/17 19:40:49;;;;;;;5.07;2.55;;;;;;;18.06;71.75;100618.34;18479929;32;20491;-66
2022/05/17 19:50:52;;;;;;;5.15;2.80;;;;;;;17.96;72.23;100624.78;18495900;32;20112;-66
2022/05/17 20:01:00;;;;;;;9.77;2.85;;;;;;;18.23;69.70;100632.84;18497370;32;20105;-66
2022/05/17 20:11:05;;;;;;;4.53;2.42;;;;;;;17.92;70.66;100641.63;18493529;32;20370;-65
2022/05/17 20:21:09;;;;;;;5.20;2.53;;;;;;;18.14;69.76;100645.41;18491556;32;20111;-66
2022/05/17 20:31:17;;;;;;;5.50;2.25;;;;;;;18.25;68.90;100655.62;18490288;32;20097;-65
2022/05/17 20:41:22;;;;;;;6.65;2.75;;;;;;;18.12;69.61;100670.13;18495229;32;20105;-66
2022/05/17 20:51:26;;;;;;;6.03;2.85;;;;;;;18.09;69.38;100679.00;18495457;32;20142;-66
2022/05/17 21:01:30;;;;;;;5.43;2.15;;;;;;;18.40;67.58;100674.59;18496511;32;20452;-65
2022/05/17 21:11:34;;;;;;;4.65;2.35;;;;;;;18.60;66.37;100689.84;18496239;32;20354;-66
2022/05/17 21:21:39;;;;;;;5.70;2.50;;;;;;;18.02;67.75;100687.97;18495525;32;20101;-65
2022/05/17 21:31:42;;;;;;;5.78;2.75;;;;;;;18.15;67.66;100696.44;18495020;32;20092;-66
2022/05/17 21:41:46;;;;;;;3.65;2.03;;;;;;;18.29;66.95;100723.34;18494443;32;20123;-66
2022/05/17 21:51:50;;;;;;;6.70;2.28;;;;;;;18.04;66.10;100731.13;18495046;32;20449;-65
2022/05/17 22:01:55;;;;;;;4.95;2.37;;;;;;;18.60;64.64;100745.37;18501332;32;20140;-65
2022/05/17 22:22:21;;;;;;;3.90;1.87;;;;;;;17.96;66.74;100767.41;18501259;32;20185;-66
2022/05/17 22:32:24;;;;;;;4.15;1.90;;;;;;;18.17;66.00;100772.13;18500673;32;20108;-66
2022/05/17 22:42:29;;;;;;;5.05;2.20;;;;;;;18.38;65.29;100780.34;18501588;32;20115;-66
2022/05/17 22:52:33;;;;;;;3.60;2.10;;;;;;;18.17;64.04;100800.31;18500299;32;20092;-65
2022/05/17 23:02:38;;;;;;;4.45;2.00;;;;;;;18.52;61.53;100793.16;18500496;32;20141;-66
2022/05/17 23:12:41;;;;;;;3.60;1.85;;;;;;;18.38;59.96;100811.19;18499071;32;20107;-66
2022/05/17 23:22:46;;;;;;;5.62;1.90;;;;;;;18.37;59.16;100815.59;18499348;32;20141;-66
2022/05/17 23:32:50;;;;;;;3.05;1.65;;;;;;;18.72;56.94;100826.94;18498872;32;20384;-66
2022/05/17 23:42:54;;;;;;;5.65;1.80;;;;;;;18.44;56.42;100838.31;18498577;32;20092;-66
2022/05/17 23:52:58;;;;;;;3.45;1.55;;;;;;;18.43;56.02;100852.44;18498334;32;20104;-66
